sensor_id;sensor_type;location;lat;lon;timestamp;P1;durP1;ratioP1;P2;durP2;ratioP2
66256;SDS011;53049;43.446;3.698;2023-10-19T00:01:22;7.55;;;2.78;;
66256;SDS011;53049;43.446;3.698;2023-10-19T00:03:51;7.60;;;2.70;;
66256;SDS011;53049;43.446;3.698;2023-10-19T00:06:21;6.68;;;2.72;;
66256;SDS011;53049;43.446;3.698;2023-10-19T00:08:48;5.03;;;2.53;;
66256;SDS011;53049;43.446;3.698;2023-10-19T00:11:17;5.03;;;2.38;;
66256;SDS011;53049;43.446;3.698;2023-10-19T00:13:51;4.45;;;1.95;;
66256;SDS011;53049;43.446;3.698;2023-10-19T00:16:20;4.18;;;2.00;;
66256;SDS011;53049;43.446;3.698;2023-10-19T00:18:54;4.07;;;1.88;;
66256;SDS011;53049;43.446;3.698;2023-10-19T00:21:24;5.60;;;2.28;;
66256;SDS011;53049;43.446;3.698;2023-10-19T00:23:54;5.38;;;2.13;;
66256;SDS011;53049;43.446;3.698;2023-10-19T00:26:22;3.33;;;1.85;;
66256;SDS011;53049;43.446;3.698;2023-10-19T00:28:52;4.10;;;1.70;;
66256;SDS011;53049;43.446;3.698;2023-10-19T00:31:20;4.45;;;1.90;;
66256;SDS011;53049;43.446;3.698;2023-10-19T00:33:47;3.05;;;1.50;;
66256;SDS011;53049;43.446;3.698;2023-10-19T00:36:16;3.05;;;1.80;;
66256;SDS011;53049;43.446;3.698;2023-10-19T00:38:45;3.40;;;1.80;;
66256;SDS011;53049;43.446;3.698;2023-10-19T00:41:14;3.83;;;1.90;;
66256;SDS011;53049;43.446;3.698;2023-10-19T00:43:47;3.60;;;2.05;;
66256;SDS011;53049;43.446;3.698;2023-10-19T00:46:15;5.45;;;2.05;;
66256;SDS011;53049;43.446;3.698;2023-10-19T00:48:45;4.97;;;1.88;;
66256;SDS011;53049;43.446;3.698;2023-10-19T00:51:22;4.50;;;1.92;;
66256;SDS011;53049;43.446;3.698;2023-10-19T00:53:56;4.40;;;1.88;;
66256;SDS011;53049;43.446;3.698;2023-10-19T00:56:26;4.13;;;2.00;;
66256;SDS011;53049;43.446;3.698;2023-10-19T00:58:56;5.75;;;1.90;;
66256;SDS011;53049;43.446;3.698;2023-10-19T01:01:32;3.88;;;1.95;;
66256;SDS011;53049;43.446;3.698;2023-10-19T01:04:02;4.53;;;1.80;;
66256;SDS011;53049;43.446;3.698;2023-10-19T01:06:29;6.25;;;1.90;;
66256;SDS011;53049;43.446;3.698;2023-10-19T01:08:58;3.08;;;1.73;;
66256;SDS011;53049;43.446;3.698;2023-10-19T01:11:23;6.40;;;2.35;;
66256;SDS011;53049;43.446;3.698;2023-10-19T01:13:53;3.17;;;1.92;;
66256;SDS011;53049;43.446;3.698;2023-10-19T01:16:20;6.10;;;1.90;;
66256;SDS011;53049;43.446;3.698;2023-10-19T01:18:49;3.85;;;2.00;;
66256;SDS011;53049;43.446;3.698;2023-10-19T01:21:24;4.38;;;2.00;;
66256;SDS011;53049;43.446;3.698;2023-10-19T01:23:53;3.95;;;2.10;;
66256;SDS011;53049;43.446;3.698;2023-10-19T01:26:18;6.32;;;2.58;;
66256;SDS011;53049;43.446;3.698;2023-10-19T01:28:51;7.40;;;2.65;;
66256;SDS011;53049;43.446;3.698;2023-10-19T01:31:19;6.35;;;3.00;;
66256;SDS011;53049;43.446;3.698;2023-10-19T01:33:52;4.43;;;2.40;;
66256;SDS011;53049;43.446;3.698;2023-10-19T01:36:21;10.82;;;3.08;;
66256;SDS011;53049;43.446;3.698;2023-10-19T01:38:47;9.02;;;3.35;;
66256;SDS011;53049;43.446;3.698;2023-10-19T01:41:13;11.15;;;3.40;;
66256;SDS011;53049;43.446;3.698;2023-10-19T01:43:42;10.20;;;3.53;;
66256;SDS011;53049;43.446;3.698;2023-10-19T01:46:09;10.30;;;3.35;;
66256;SDS011;53049;43.446;3.698;2023-10-19T01:48:46;10.45;;;3.60;;
66256;SDS011;53049;43.446;3.698;2023-10-19T01:51:15;12.73;;;3.42;;
66256;SDS011;53049;43.446;3.698;2023-10-19T01:53:42;9.45;;;3.30;;
66256;SDS011;53049;43.446;3.698;2023-10-19T01:56:14;10.90;;;3.65;;
66256;SDS011;53049;43.446;3.698;2023-10-19T01:58:42;10.45;;;3.85;;
66256;SDS011;53049;43.446;3.698;2023-10-19T02:01:15;7.90;;;3.15;;
66256;SDS011;53049;43.446;3.698;2023-10-19T02:03:44;10.27;;;3.33;;
66256;SDS011;53049;43.446;3.698;2023-10-19T02:06:10;6.28;;;3.10;;
66256;SDS011;53049;43.446;3.698;2023-10-19T02:08:51;7.32;;;2.88;;
66256;SDS011;53049;43.446;3.698;2023-10-19T02:11:25;6.57;;;2.80;;
66256;SDS011;53049;43.446;3.698;2023-10-19T02:13:52;7.10;;;2.60;;
66256;SDS011;53049;43.446;3.698;2023-10-19T02:16:19;5.43;;;2.38;;
66256;SDS011;53049;43.446;3.698;2023-10-19T02:18:49;6.57;;;2.53;;
66256;SDS011;53049;43.446;3.698;2023-10-19T02:21:16;7.38;;;2.55;;
66256;SDS011;53049;43.446;3.698;2023-10-19T02:24:02;4.03;;;2.17;;
66256;SDS011;53049;43.446;3.698;2023-10-19T02:26:28;9.07;;;2.70;;
66256;SDS011;53049;43.446;3.698;2023-10-19T02:28:56;7.55;;;2.92;;
66256;SDS011;53049;43.446;3.698;2023-10-19T02:31:23;6.72;;;2.88;;
66256;SDS011;53049;43.446;3.698;2023-10-19T02:33:50;10.93;;;3.08;;
66256;SDS011;53049;43.446;3.698;2023-10-19T02:36:28;9.48;;;3.20;;
66256;SDS011;53049;43.446;3.698;2023-10-19T02:38:56;11.45;;;3.58;;
66256;SDS011;53049;43.446;3.698;2023-10-19T02:41:26;12.25;;;3.90;;
66256;SDS011;53049;43.446;3.698;2023-10-19T02:43:55;11.55;;;3.80;;
66256;SDS011;53049;43.446;3.698;2023-10-19T02:46:34;10.90;;;3.60;;
66256;SDS011;53049;43.446;3.698;2023-10-19T02:49:04;12.48;;;3.95;;
66256;SDS011;53049;43.446;3.698;2023-10-19T02:51:36;9.18;;;4.18;;
66256;SDS011;53049;43.446;3.698;2023-10-19T02:54:06;12.95;;;4.80;;
66256;SDS011;53049;43.446;3.698;2023-10-19T02:56:33;11.93;;;3.83;;
66256;SDS011;53049;43.446;3.698;2023-10-19T02:59:03;10.50;;;4.00;;
66256;SDS011;53049;43.446;3.698;2023-10-19T03:01:29;12.73;;;3.90;;
66256;SDS011;53049;43.446;3.698;2023-10-19T03:03:59;10.68;;;3.17;;
66256;SDS011;53049;43.446;3.698;2023-10-19T03:06:27;8.18;;;3.38;;
66256;SDS011;53049;43.446;3.698;2023-10-19T03:08:57;8.15;;;3.03;;
66256;SDS011;53049;43.446;3.698;2023-10-19T03:11:24;8.88;;;2.92;;
66256;SDS011;53049;43.446;3.698;2023-10-19T03:13:50;7.28;;;2.70;;
66256;SDS011;53049;43.446;3.698;2023-10-19T03:16:19;10.07;;;2.85;;
66256;SDS011;53049;43.446;3.698;2023-10-19T03:18:47;9.90;;;2.90;;
66256;SDS011;53049;43.446;3.698;2023-10-19T03:21:13;9.63;;;2.80;;
66256;SDS011;53049;43.446;3.698;2023-10-19T03:23:38;7.07;;;2.97;;
66256;SDS011;53049;43.446;3.698;2023-10-19T03:26:06;12.43;;;3.42;;
66256;SDS011;53049;43.446;3.698;2023-10-19T03:28:50;10.00;;;3.47;;
66256;SDS011;53049;43.446;3.698;2023-10-19T03:31:21;13.38;;;4.22;;
66256;SDS011;53049;43.446;3.698;2023-10-19T03:33:52;8.85;;;3.00;;
66256;SDS011;53049;43.446;3.698;2023-10-19T03:36:25;11.20;;;3.38;;
66256;SDS011;53049;43.446;3.698;2023-10-19T03:38:51;11.57;;;3.70;;
66256;SDS011;53049;43.446;3.698;2023-10-19T03:41:19;6.18;;;2.50;;
66256;SDS011;53049;43.446;3.698;2023-10-19T03:43:54;9.90;;;3.15;;
66256;SDS011;53049;43.446;3.698;2023-10-19T03:46:22;12.63;;;4.03;;
66256;SDS011;53049;43.446;3.698;2023-10-19T03:48:56;10.82;;;3.22;;
66256;SDS011;53049;43.446;3.698;2023-10-19T03:51:46;9.15;;;3.17;;
66256;SDS011;53049;43.446;3.698;2023-10-19T03:54:27;7.50;;;2.92;;
66256;SDS011;53049;43.446;3.698;2023-10-19T03:56:54;7.50;;;2.92;;
66256;SDS011;53049;43.446;3.698;2023-10-19T03:59:31;11.88;;;3.35;;
66256;SDS011;53049;43.446;3.698;2023-10-19T04:02:00;7.72;;;2.90;;
66256;SDS011;53049;43.446;3.698;2023-10-19T04:04:32;8.07;;;3.20;;
66256;SDS011;53049;43.446;3.698;2023-10-19T04:06:58;8.70;;;3.13;;
66256;SDS011;53049;43.446;3.698;2023-10-19T04:09:24;9.77;;;3.33;;
66256;SDS011;53049;43.446;3.698;2023-10-19T04:11:55;10.00;;;3.78;;
66256;SDS011;53049;43.446;3.698;2023-10-19T04:14:22;10.13;;;3.70;;
66256;SDS011;53049;43.446;3.698;2023-10-19T04:16:48;13.27;;;3.30;;
66256;SDS011;53049;43.446;3.698;2023-10-19T04:19:14;14.43;;;4.28;;
66256;SDS011;53049;43.446;3.698;2023-10-19T04:21:43;9.88;;;4.13;;
66256;SDS011;53049;43.446;3.698;2023-10-19T04:24:11;8.25;;;3.78;;
66256;SDS011;53049;43.446;3.698;2023-10-19T04:26:38;11.02;;;3.70;;
66256;SDS011;53049;43.446;3.698;2023-10-19T04:29:04;11.07;;;3.33;;
66256;SDS011;53049;43.446;3.698;2023-10-19T04:31:40;12.90;;;3.80;;
66256;SDS011;53049;43.446;3.698;2023-10-19T04:34:34;16.80;;;5.07;;
66256;SDS011;53049;43.446;3.698;2023-10-19T04:37:01;12.23;;;3.63;;
66256;SDS011;53049;43.446;3.698;2023-10-19T04:39:28;17.48;;;4.63;;
66256;SDS011;53049;43.446;3.698;2023-10-19T04:41:55;13.35;;;3.97;;
66256;SDS011;53049;43.446;3.698;2023-10-19T04:44:21;10.10;;;3.50;;
66256;SDS011;53049;43.446;3.698;2023-10-19T04:46:48;7.97;;;3.65;;
66256;SDS011;53049;43.446;3.698;2023-10-19T04:49:14;10.38;;;3.08;;
66256;SDS011;53049;43.446;3.698;2023-10-19T04:51:41;9.65;;;3.70;;
66256;SDS011;53049;43.446;3.698;2023-10-19T04:54:08;8.00;;;3.20;;
66256;SDS011;53049;43.446;3.698;2023-10-19T04:56:34;11.48;;;3.60;;
66256;SDS011;53049;43.446;3.698;2023-10-19T04:59:03;9.65;;;3.13;;
66256;SDS011;53049;43.446;3.698;2023-10-19T05:01:29;12.88;;;3.67;;
66256;SDS011;53049;43.446;3.698;2023-10-19T05:03:58;13.85;;;3.70;;
66256;SDS011;53049;43.446;3.698;2023-10-19T05:06:24;10.43;;;3.63;;
66256;SDS011;53049;43.446;3.698;2023-10-19T05:08:50;13.95;;;4.03;;
66256;SDS011;53049;43.446;3.698;2023-10-19T05:11:17;8.40;;;3.30;;
66256;SDS011;53049;43.446;3.698;2023-10-19T05:13:43;12.32;;;4.00;;
66256;SDS011;53049;43.446;3.698;2023-10-19T05:16:08;20.70;;;5.05;;
66256;SDS011;53049;43.446;3.698;2023-10-19T05:18:34;15.55;;;4.38;;
66256;SDS011;53049;43.446;3.698;2023-10-19T05:21:00;12.05;;;4.70;;
66256;SDS011;53049;43.446;3.698;2023-10-19T05:23:26;13.43;;;4.47;;
66256;SDS011;53049;43.446;3.698;2023-10-19T05:25:53;13.10;;;4.70;;
66256;SDS011;53049;43.446;3.698;2023-10-19T05:28:24;12.82;;;5.03;;
66256;SDS011;53049;43.446;3.698;2023-10-19T05:30:50;17.23;;;5.57;;
66256;SDS011;53049;43.446;3.698;2023-10-19T05:33:16;20.63;;;5.80;;
66256;SDS011;53049;43.446;3.698;2023-10-19T05:35:48;22.30;;;7.28;;
66256;SDS011;53049;43.446;3.698;2023-10-19T05:38:16;38.03;;;11.52;;
66256;SDS011;53049;43.446;3.698;2023-10-19T05:40:44;42.22;;;13.27;;
66256;SDS011;53049;43.446;3.698;2023-10-19T05:43:10;34.35;;;11.68;;
66256;SDS011;53049;43.446;3.698;2023-10-19T05:45:36;42.78;;;14.02;;
66256;SDS011;53049;43.446;3.698;2023-10-19T05:48:05;43.72;;;13.48;;
66256;SDS011;53049;43.446;3.698;2023-10-19T05:50:34;40.95;;;13.13;;
66256;SDS011;53049;43.446;3.698;2023-10-19T05:53:01;48.72;;;14.25;;
66256;SDS011;53049;43.446;3.698;2023-10-19T05:55:30;47.20;;;13.82;;
66256;SDS011;53049;43.446;3.698;2023-10-19T05:57:56;41.22;;;11.88;;
66256;SDS011;53049;43.446;3.698;2023-10-19T06:00:22;35.97;;;10.65;;
66256;SDS011;53049;43.446;3.698;2023-10-19T06:02:50;40.50;;;12.38;;
66256;SDS011;53049;43.446;3.698;2023-10-19T06:05:17;29.85;;;11.25;;
66256;SDS011;53049;43.446;3.698;2023-10-19T06:07:47;36.35;;;11.20;;
66256;SDS011;53049;43.446;3.698;2023-10-19T06:10:15;37.35;;;10.80;;
66256;SDS011;53049;43.446;3.698;2023-10-19T06:12:43;33.75;;;11.90;;
66256;SDS011;53049;43.446;3.698;2023-10-19T06:15:10;39.08;;;11.85;;
66256;SDS011;53049;43.446;3.698;2023-10-19T06:17:37;37.47;;;10.32;;
66256;SDS011;53049;43.446;3.698;2023-10-19T06:20:05;29.63;;;10.48;;
66256;SDS011;53049;43.446;3.698;2023-10-19T06:22:48;23.65;;;8.15;;
66256;SDS011;53049;43.446;3.698;2023-10-19T06:25:33;31.02;;;10.35;;
66256;SDS011;53049;43.446;3.698;2023-10-19T06:28:01;39.65;;;11.23;;
66256;SDS011;53049;43.446;3.698;2023-10-19T06:30:27;35.03;;;10.23;;
66256;SDS011;53049;43.446;3.698;2023-10-19T06:32:54;28.02;;;9.35;;
66256;SDS011;53049;43.446;3.698;2023-10-19T06:35:21;25.88;;;8.90;;
66256;SDS011;53049;43.446;3.698;2023-10-19T06:37:48;27.70;;;8.70;;
66256;SDS011;53049;43.446;3.698;2023-10-19T06:40:14;32.13;;;9.90;;
66256;SDS011;53049;43.446;3.698;2023-10-19T06:42:44;32.25;;;9.77;;
66256;SDS011;53049;43.446;3.698;2023-10-19T06:45:11;30.73;;;9.48;;
66256;SDS011;53049;43.446;3.698;2023-10-19T06:47:40;28.52;;;9.93;;
66256;SDS011;53049;43.446;3.698;2023-10-19T06:50:07;28.95;;;9.77;;
66256;SDS011;53049;43.446;3.698;2023-10-19T06:52:35;33.15;;;10.35;;
66256;SDS011;53049;43.446;3.698;2023-10-19T06:55:05;35.03;;;10.48;;
66256;SDS011;53049;43.446;3.698;2023-10-19T06:58:04;38.50;;;9.48;;
66256;SDS011;53049;43.446;3.698;2023-10-19T07:00:30;31.10;;;9.60;;
66256;SDS011;53049;43.446;3.698;2023-10-19T07:02:56;28.23;;;8.65;;
66256;SDS011;53049;43.446;3.698;2023-10-19T07:05:25;27.08;;;8.75;;
66256;SDS011;53049;43.446;3.698;2023-10-19T07:07:55;35.75;;;9.35;;
66256;SDS011;53049;43.446;3.698;2023-10-19T07:10:22;28.13;;;9.00;;
66256;SDS011;53049;43.446;3.698;2023-10-19T07:12:51;36.47;;;9.15;;
66256;SDS011;53049;43.446;3.698;2023-10-19T07:15:37;33.20;;;9.27;;
66256;SDS011;53049;43.446;3.698;2023-10-19T07:18:06;30.95;;;9.45;;
66256;SDS011;53049;43.446;3.698;2023-10-19T07:20:32;26.77;;;9.00;;
66256;SDS011;53049;43.446;3.698;2023-10-19T07:22:58;28.90;;;9.13;;
66256;SDS011;53049;43.446;3.698;2023-10-19T07:25:28;26.90;;;8.55;;
66256;SDS011;53049;43.446;3.698;2023-10-19T07:27:54;29.38;;;9.55;;
66256;SDS011;53049;43.446;3.698;2023-10-19T07:30:20;27.33;;;9.95;;
66256;SDS011;53049;43.446;3.698;2023-10-19T07:32:51;31.55;;;9.52;;
66256;SDS011;53049;43.446;3.698;2023-10-19T07:35:23;33.42;;;10.38;;
66256;SDS011;53049;43.446;3.698;2023-10-19T07:40:26;26.80;;;9.57;;
66256;SDS011;53049;43.446;3.698;2023-10-19T07:45:28;32.10;;;10.73;;
66256;SDS011;53049;43.446;3.698;2023-10-19T07:47:55;33.83;;;9.52;;
66256;SDS011;53049;43.446;3.698;2023-10-19T09:41:20;20.30;;;6.38;;
66256;SDS011;53049;43.446;3.698;2023-10-19T09:48:57;18.67;;;6.45;;
66256;SDS011;53049;43.446;3.698;2023-10-19T09:51:23;14.93;;;5.18;;
66256;SDS011;53049;43.446;3.698;2023-10-19T09:53:58;14.65;;;5.53;;
66256;SDS011;53049;43.446;3.698;2023-10-19T09:56:34;13.32;;;4.65;;
66256;SDS011;53049;43.446;3.698;2023-10-19T09:59:06;17.77;;;5.43;;
66256;SDS011;53049;43.446;3.698;2023-10-19T10:04:43;12.90;;;4.90;;
66256;SDS011;53049;43.446;3.698;2023-10-19T10:07:14;12.80;;;4.38;;
66256;SDS011;53049;43.446;3.698;2023-10-19T10:09:41;16.25;;;4.70;;
66256;SDS011;53049;43.446;3.698;2023-10-19T10:12:23;15.88;;;5.72;;
66256;SDS011;53049;43.446;3.698;2023-10-19T10:14:59;13.05;;;4.57;;
66256;SDS011;53049;43.446;3.698;2023-10-19T10:17:33;13.80;;;4.53;;
66256;SDS011;53049;43.446;3.698;2023-10-19T10:22:40;16.02;;;5.25;;
66256;SDS011;53049;43.446;3.698;2023-10-19T10:25:27;16.90;;;5.70;;
66256;SDS011;53049;43.446;3.698;2023-10-19T10:27:54;17.52;;;4.05;;
66256;SDS011;53049;43.446;3.698;2023-10-19T10:30:20;12.13;;;4.65;;
66256;SDS011;53049;43.446;3.698;2023-10-19T10:32:46;20.25;;;4.65;;
66256;SDS011;53049;43.446;3.698;2023-10-19T10:35:56;13.95;;;4.05;;
66256;SDS011;53049;43.446;3.698;2023-10-19T10:38:09;12.95;;;3.50;;
66256;SDS011;53049;43.446;3.698;2023-10-19T10:43:09;10.95;;;3.40;;
66256;SDS011;53049;43.446;3.698;2023-10-19T10:45:36;11.38;;;3.38;;
66256;SDS011;53049;43.446;3.698;2023-10-19T10:48:02;12.50;;;3.83;;
66256;SDS011;53049;43.446;3.698;2023-10-19T10:50:29;16.60;;;4.25;;
66256;SDS011;53049;43.446;3.698;2023-10-19T10:52:54;12.93;;;2.88;;
66256;SDS011;53049;43.446;3.698;2023-10-19T10:55:23;12.15;;;2.75;;
66256;SDS011;53049;43.446;3.698;2023-10-19T10:57:52;10.82;;;3.13;;
66256;SDS011;53049;43.446;3.698;2023-10-19T11:00:19;12.45;;;3.15;;
66256;SDS011;53049;43.446;3.698;2023-10-19T11:02:58;9.90;;;2.83;;
66256;SDS011;53049;43.446;3.698;2023-10-19T11:05:35;12.70;;;2.72;;
66256;SDS011;53049;43.446;3.698;2023-10-19T11:10:41;9.25;;;3.13;;
66256;SDS011;53049;43.446;3.698;2023-10-19T11:13:12;9.38;;;3.20;;
66256;SDS011;53049;43.446;3.698;2023-10-19T11:15:47;11.43;;;2.92;;
66256;SDS011;53049;43.446;3.698;2023-10-19T11:18:34;13.68;;;3.25;;
66256;SDS011;53049;43.446;3.698;2023-10-19T11:21:11;11.05;;;2.75;;
66256;SDS011;53049;43.446;3.698;2023-10-19T11:23:43;18.08;;;3.38;;
66256;SDS011;53049;43.446;3.698;2023-10-19T11:26:15;9.95;;;2.78;;
66256;SDS011;53049;43.446;3.698;2023-10-19T11:28:42;9.77;;;3.85;;
66256;SDS011;53049;43.446;3.698;2023-10-19T11:33:49;16.85;;;3.25;;
66256;SDS011;53049;43.446;3.698;2023-10-19T11:36:17;11.77;;;2.80;;
66256;SDS011;53049;43.446;3.698;2023-10-19T11:38:47;13.52;;;3.45;;
66256;SDS011;53049;43.446;3.698;2023-10-19T11:41:14;13.23;;;3.28;;
66256;SDS011;53049;43.446;3.698;2023-10-19T11:43:42;11.05;;;3.15;;
66256;SDS011;53049;43.446;3.698;2023-10-19T11:46:13;13.07;;;3.17;;
66256;SDS011;53049;43.446;3.698;2023-10-19T12:18:09;12.70;;;2.92;;
66256;SDS011;53049;43.446;3.698;2023-10-19T13:17:00;7.75;;;2.30;;
66256;SDS011;53049;43.446;3.698;2023-10-19T13:19:27;8.90;;;2.55;;
66256;SDS011;53049;43.446;3.698;2023-10-19T13:21:53;6.80;;;2.15;;
66256;SDS011;53049;43.446;3.698;2023-10-19T13:24:19;5.88;;;2.50;;
66256;SDS011;53049;43.446;3.698;2023-10-19T13:26:50;7.03;;;2.28;;
66256;SDS011;53049;43.446;3.698;2023-10-19T13:29:16;6.80;;;2.13;;
66256;SDS011;53049;43.446;3.698;2023-10-19T13:31:42;7.53;;;3.13;;
66256;SDS011;53049;43.446;3.698;2023-10-19T13:34:14;10.70;;;2.55;;
66256;SDS011;53049;43.446;3.698;2023-10-19T13:36:43;8.50;;;2.25;;
66256;SDS011;53049;43.446;3.698;2023-10-19T13:39:11;7.10;;;2.40;;
66256;SDS011;53049;43.446;3.698;2023-10-19T13:41:41;7.72;;;2.50;;
66256;SDS011;53049;43.446;3.698;2023-10-19T13:44:07;15.68;;;4.80;;
66256;SDS011;53049;43.446;3.698;2023-10-19T13:46:33;11.32;;;4.53;;
66256;SDS011;53049;43.446;3.698;2023-10-19T13:48:59;10.85;;;4.10;;
66256;SDS011;53049;43.446;3.698;2023-10-19T13:51:28;8.10;;;3.15;;
66256;SDS011;53049;43.446;3.698;2023-10-19T13:53:57;10.60;;;3.10;;
66256;SDS011;53049;43.446;3.698;2023-10-19T13:59:17;10.52;;;5.18;;
66256;SDS011;53049;43.446;3.698;2023-10-19T14:01:43;12.15;;;4.60;;
66256;SDS011;53049;43.446;3.698;2023-10-19T14:04:09;8.40;;;3.20;;
66256;SDS011;53049;43.446;3.698;2023-10-19T14:41:25;13.23;;;3.47;;
66256;SDS011;53049;43.446;3.698;2023-10-19T14:57:27;16.15;;;3.90;;
66256;SDS011;53049;43.446;3.698;2023-10-19T14:59:53;15.27;;;3.72;;
66256;SDS011;53049;43.446;3.698;2023-10-19T15:02:19;13.00;;;3.47;;
66256;SDS011;53049;43.446;3.698;2023-10-19T15:05:06;14.57;;;4.20;;
66256;SDS011;53049;43.446;3.698;2023-10-19T15:10:09;17.67;;;3.65;;
66256;SDS011;53049;43.446;3.698;2023-10-19T15:15:13;29.00;;;5.78;;
66256;SDS011;53049;43.446;3.698;2023-10-19T15:20:20;12.45;;;3.42;;
66256;SDS011;53049;43.446;3.698;2023-10-19T15:22:50;12.68;;;3.80;;
66256;SDS011;53049;43.446;3.698;2023-10-19T15:25:16;13.00;;;3.63;;
66256;SDS011;53049;43.446;3.698;2023-10-19T15:27:44;12.50;;;3.35;;
66256;SDS011;53049;43.446;3.698;2023-10-19T15:30:11;19.45;;;3.53;;
66256;SDS011;53049;43.446;3.698;2023-10-19T15:32:47;13.35;;;3.13;;
66256;SDS011;53049;43.446;3.698;2023-10-19T15:56:43;22.05;;;5.28;;
66256;SDS011;53049;43.446;3.698;2023-10-19T15:59:10;25.08;;;5.95;;
66256;SDS011;53049;43.446;3.698;2023-10-19T16:01:36;37.40;;;6.45;;
66256;SDS011;53049;43.446;3.698;2023-10-19T16:04:02;30.15;;;5.80;;
66256;SDS011;53049;43.446;3.698;2023-10-19T16:06:28;27.35;;;6.38;;
66256;SDS011;53049;43.446;3.698;2023-10-19T16:08:54;19.10;;;5.38;;
66256;SDS011;53049;43.446;3.698;2023-10-19T16:11:32;20.88;;;5.68;;
66256;SDS011;53049;43.446;3.698;2023-10-19T16:13:58;35.40;;;6.78;;
66256;SDS011;53049;43.446;3.698;2023-10-19T16:16:24;27.50;;;5.78;;
66256;SDS011;53049;43.446;3.698;2023-10-19T16:21:39;31.83;;;6.78;;
66256;SDS011;53049;43.446;3.698;2023-10-19T16:24:10;31.63;;;7.40;;
66256;SDS011;53049;43.446;3.698;2023-10-19T16:26:36;23.15;;;6.15;;
66256;SDS011;53049;43.446;3.698;2023-10-19T16:29:16;33.60;;;6.22;;
66256;SDS011;53049;43.446;3.698;2023-10-19T16:31:42;23.70;;;5.50;;
66256;SDS011;53049;43.446;3.698;2023-10-19T16:47:05;19.52;;;5.75;;
66256;SDS011;53049;43.446;3.698;2023-10-19T16:49:31;27.98;;;6.32;;
66256;SDS011;53049;43.446;3.698;2023-10-19T16:59:46;30.05;;;6.75;;
66256;SDS011;53049;43.446;3.698;2023-10-19T17:04:43;25.10;;;5.78;;
66256;SDS011;53049;43.446;3.698;2023-10-19T17:07:09;29.08;;;5.97;;
66256;SDS011;53049;43.446;3.698;2023-10-19T17:09:34;23.83;;;5.60;;
66256;SDS011;53049;43.446;3.698;2023-10-19T17:12:01;23.30;;;5.45;;
66256;SDS011;53049;43.446;3.698;2023-10-19T17:14:27;26.23;;;6.15;;
66256;SDS011;53049;43.446;3.698;2023-10-19T17:16:53;19.85;;;5.32;;
66256;SDS011;53049;43.446;3.698;2023-10-19T17:19:18;27.85;;;5.47;;
66256;SDS011;53049;43.446;3.698;2023-10-19T17:21:45;23.88;;;5.63;;
66256;SDS011;53049;43.446;3.698;2023-10-19T17:24:11;29.05;;;5.85;;
66256;SDS011;53049;43.446;3.698;2023-10-19T17:26:40;27.20;;;5.57;;
66256;SDS011;53049;43.446;3.698;2023-10-19T17:29:05;26.70;;;5.90;;
66256;SDS011;53049;43.446;3.698;2023-10-19T17:31:31;23.85;;;5.53;;
66256;SDS011;53049;43.446;3.698;2023-10-19T17:44:37;25.02;;;6.00;;
66256;SDS011;53049;43.446;3.698;2023-10-19T17:47:04;29.15;;;6.30;;
66256;SDS011;53049;43.446;3.698;2023-10-19T17:49:30;28.48;;;6.55;;
66256;SDS011;53049;43.446;3.698;2023-10-19T17:51:58;28.98;;;6.90;;
66256;SDS011;53049;43.446;3.698;2023-10-19T17:54:27;26.95;;;6.07;;
66256;SDS011;53049;43.446;3.698;2023-10-19T17:56:59;28.80;;;6.25;;
66256;SDS011;53049;43.446;3.698;2023-10-19T17:59:24;25.50;;;5.72;;
66256;SDS011;53049;43.446;3.698;2023-10-19T18:01:50;29.42;;;6.78;;
66256;SDS011;53049;43.446;3.698;2023-10-19T18:04:16;27.73;;;7.43;;
66256;SDS011;53049;43.446;3.698;2023-10-19T18:06:44;26.40;;;6.00;;
66256;SDS011;53049;43.446;3.698;2023-10-19T18:09:11;25.33;;;5.55;;
66256;SDS011;53049;43.446;3.698;2023-10-19T18:11:38;25.90;;;6.03;;
66256;SDS011;53049;43.446;3.698;2023-10-19T18:14:04;24.60;;;5.57;;
66256;SDS011;53049;43.446;3.698;2023-10-19T18:16:32;25.23;;;6.53;;
66256;SDS011;53049;43.446;3.698;2023-10-19T18:19:03;26.80;;;6.20;;
66256;SDS011;53049;43.446;3.698;2023-10-19T18:21:29;22.35;;;5.82;;
66256;SDS011;53049;43.446;3.698;2023-10-19T18:23:56;29.58;;;6.38;;
66256;SDS011;53049;43.446;3.698;2023-10-19T18:26:23;25.77;;;5.53;;
66256;SDS011;53049;43.446;3.698;2023-10-19T18:28:50;16.77;;;5.18;;
66256;SDS011;53049;43.446;3.698;2023-10-19T18:31:16;23.55;;;5.78;;
66256;SDS011;53049;43.446;3.698;2023-10-19T18:33:45;27.30;;;7.07;;
66256;SDS011;53049;43.446;3.698;2023-10-19T18:36:10;26.33;;;5.45;;
66256;SDS011;53049;43.446;3.698;2023-10-19T18:41:16;23.98;;;5.97;;
66256;SDS011;53049;43.446;3.698;2023-10-19T18:43:42;22.50;;;4.85;;
66256;SDS011;53049;43.446;3.698;2023-10-19T18:52:04;25.67;;;5.10;;
66256;SDS011;53049;43.446;3.698;2023-10-19T18:57:18;30.77;;;6.60;;
66256;SDS011;53049;43.446;3.698;2023-10-19T18:59:43;21.52;;;5.00;;
66256;SDS011;53049;43.446;3.698;2023-10-19T19:02:09;23.15;;;5.70;;
66256;SDS011;53049;43.446;3.698;2023-10-19T19:04:35;26.05;;;6.05;;
66256;SDS011;53049;43.446;3.698;2023-10-19T19:07:01;21.73;;;4.88;;
66256;SDS011;53049;43.446;3.698;2023-10-19T19:09:27;23.25;;;5.53;;
66256;SDS011;53049;43.446;3.698;2023-10-19T19:25:05;28.88;;;6.90;;
66256;SDS011;53049;43.446;3.698;2023-10-19T19:27:32;23.92;;;5.88;;
66256;SDS011;53049;43.446;3.698;2023-10-19T19:29:58;24.75;;;5.95;;
66256;SDS011;53049;43.446;3.698;2023-10-19T19:32:24;29.20;;;6.18;;
66256;SDS011;53049;43.446;3.698;2023-10-19T19:34:49;34.05;;;7.28;;
66256;SDS011;53049;43.446;3.698;2023-10-19T19:37:15;23.50;;;6.00;;
66256;SDS011;53049;43.446;3.698;2023-10-19T19:39:42;28.40;;;6.78;;
66256;SDS011;53049;43.446;3.698;2023-10-19T19:42:09;30.33;;;5.75;;
66256;SDS011;53049;43.446;3.698;2023-10-19T19:44:36;29.45;;;6.80;;
66256;SDS011;53049;43.446;3.698;2023-10-19T19:47:02;36.30;;;7.10;;
66256;SDS011;53049;43.446;3.698;2023-10-19T19:49:27;30.40;;;6.43;;
66256;SDS011;53049;43.446;3.698;2023-10-19T19:51:53;25.23;;;5.22;;
66256;SDS011;53049;43.446;3.698;2023-10-19T19:54:20;29.00;;;6.35;;
66256;SDS011;53049;43.446;3.698;2023-10-19T19:56:47;28.23;;;6.45;;
66256;SDS011;53049;43.446;3.698;2023-10-19T19:59:14;31.70;;;6.53;;
66256;SDS011;53049;43.446;3.698;2023-10-19T20:01:40;25.98;;;6.20;;
66256;SDS011;53049;43.446;3.698;2023-10-19T20:04:06;32.28;;;7.05;;
66256;SDS011;53049;43.446;3.698;2023-10-19T20:06:32;23.45;;;6.57;;
66256;SDS011;53049;43.446;3.698;2023-10-19T20:08:58;28.38;;;6.32;;
66256;SDS011;53049;43.446;3.698;2023-10-19T20:11:25;25.23;;;5.95;;
66256;SDS011;53049;43.446;3.698;2023-10-19T20:13:50;28.85;;;6.68;;
66256;SDS011;53049;43.446;3.698;2023-10-19T20:16:16;31.23;;;6.93;;
66256;SDS011;53049;43.446;3.698;2023-10-19T20:18:41;32.60;;;8.23;;
66256;SDS011;53049;43.446;3.698;2023-10-19T20:21:07;27.60;;;6.85;;
66256;SDS011;53049;43.446;3.698;2023-10-19T20:23:33;32.28;;;6.80;;
66256;SDS011;53049;43.446;3.698;2023-10-19T20:26:00;32.42;;;7.22;;
66256;SDS011;53049;43.446;3.698;2023-10-19T20:28:27;27.88;;;6.15;;
66256;SDS011;53049;43.446;3.698;2023-10-19T20:30:52;33.55;;;7.13;;
66256;SDS011;53049;43.446;3.698;2023-10-19T20:33:18;30.25;;;6.45;;
66256;SDS011;53049;43.446;3.698;2023-10-19T20:35:44;25.48;;;5.63;;
66256;SDS011;53049;43.446;3.698;2023-10-19T20:38:17;32.30;;;6.43;;
66256;SDS011;53049;43.446;3.698;2023-10-19T20:40:46;27.73;;;7.10;;
66256;SDS011;53049;43.446;3.698;2023-10-19T20:43:12;29.30;;;5.88;;
66256;SDS011;53049;43.446;3.698;2023-10-19T20:45:42;29.95;;;7.22;;
66256;SDS011;53049;43.446;3.698;2023-10-19T20:48:09;33.60;;;8.10;;
66256;SDS011;53049;43.446;3.698;2023-10-19T20:50:35;33.90;;;7.55;;